createdAt,value
2023-11-25T00:01:15.764Z,16.34
2023-11-25T00:03:43.103Z,16.38
2023-11-25T00:06:10.895Z,16.44
2023-11-25T00:08:38.180Z,16.39
2023-11-25T00:11:14.335Z,16.29
2023-11-25T00:13:45.808Z,16.36
2023-11-25T00:16:12.893Z,16.40
2023-11-25T00:18:40.000Z,16.46
2023-11-25T00:21:07.232Z,16.48
2023-11-25T00:23:34.398Z,16.52
2023-11-25T00:26:01.464Z,16.47
2023-11-25T00:28:28.701Z,16.53
2023-11-25T00:30:55.771Z,16.52
2023-11-25T00:33:22.974Z,16.49
2023-11-25T00:35:50.215Z,16.53
2023-11-25T00:38:17.514Z,16.54
2023-11-25T00:40:44.730Z,16.43
2023-11-25T00:43:13.198Z,16.52
2023-11-25T00:45:40.342Z,16.46
2023-11-25T00:48:08.419Z,16.37
2023-11-25T00:50:35.686Z,16.35
2023-11-25T00:53:02.745Z,16.33
2023-11-25T00:55:31.161Z,16.32
2023-11-25T00:57:59.195Z,16.31
2023-11-25T01:00:28.117Z,16.23
2023-11-25T01:02:58.007Z,16.16
2023-11-25T01:05:25.566Z,16.13
2023-11-25T01:07:53.109Z,16.18
2023-11-25T01:10:20.581Z,16.11
2023-11-25T01:12:47.802Z,16.20
2023-11-25T01:15:16.584Z,16.19
2023-11-25T01:17:43.799Z,16.22
2023-11-25T01:20:11.801Z,16.26
2023-11-25T01:22:40.461Z,16.34
2023-11-25T01:25:08.262Z,16.31
2023-11-25T01:27:36.973Z,16.39
2023-11-25T01:30:10.160Z,16.38
2023-11-25T01:32:37.511Z,16.24
2023-11-25T01:35:06.522Z,16.12
2023-11-25T01:37:33.728Z,15.82
2023-11-25T01:40:01.027Z,15.74
2023-11-25T01:42:28.409Z,15.67
2023-11-25T01:44:55.602Z,15.74
2023-11-25T01:47:22.965Z,15.69
2023-11-25T01:49:50.481Z,15.64
2023-11-25T01:52:18.919Z,15.64
2023-11-25T01:54:46.082Z,15.57
2023-11-25T01:57:14.137Z,15.63
2023-11-25T01:59:41.397Z,15.58
2023-11-25T02:02:08.919Z,15.54
2023-11-25T02:04:36.347Z,15.39
2023-11-25T02:07:04.032Z,15.47
2023-11-25T02:09:31.098Z,15.40
2023-11-25T02:12:03.484Z,15.38
2023-11-25T02:14:30.862Z,15.16
2023-11-25T02:16:58.541Z,15.23
2023-11-25T02:19:26.266Z,15.23
2023-11-25T02:21:54.220Z,15.20
2023-11-25T02:24:21.440Z,15.10
2023-11-25T02:26:49.586Z,15.19
2023-11-25T02:29:16.770Z,15.12
2023-11-25T02:31:44.293Z,15.23
2023-11-25T02:34:11.911Z,15.22
2023-11-25T02:36:39.956Z,15.29
2023-11-25T02:39:07.237Z,15.44
2023-11-25T02:41:36.606Z,15.48
2023-11-25T02:44:04.161Z,15.41
2023-11-25T02:46:31.291Z,15.40
2023-11-25T02:48:58.400Z,15.44
2023-11-25T02:51:25.860Z,15.46
2023-11-25T02:53:53.047Z,15.56
2023-11-25T02:56:22.038Z,15.50
2023-11-25T02:58:50.002Z,15.47
2023-11-25T03:01:17.959Z,15.45
2023-11-25T03:03:49.834Z,15.48
2023-11-25T03:06:22.079Z,15.46
2023-11-25T03:08:49.997Z,15.42
2023-11-25T03:11:23.619Z,15.38
2023-11-25T03:13:50.735Z,15.37
2023-11-25T03:16:26.289Z,15.41
2023-11-25T03:18:53.581Z,15.36
2023-11-25T03:21:21.509Z,15.33
2023-11-25T03:23:48.807Z,15.31
2023-11-25T03:26:16.610Z,15.36
2023-11-25T03:28:44.538Z,15.36
2023-11-25T03:31:13.849Z,15.45
2023-11-25T03:33:42.158Z,15.32
2023-11-25T03:36:09.403Z,15.40
2023-11-25T03:38:37.287Z,15.40
2023-11-25T03:41:04.389Z,15.30
2023-11-25T03:43:31.510Z,15.32
2023-11-25T03:46:00.038Z,15.32
2023-11-25T03:48:27.240Z,15.30
2023-11-25T03:50:54.376Z,15.23
2023-11-25T03:53:21.652Z,15.41
2023-11-25T03:55:48.759Z,15.31
2023-11-25T03:58:15.851Z,15.36
2023-11-25T04:00:43.046Z,15.32
2023-11-25T04:03:10.372Z,15.39
2023-11-25T04:05:37.482Z,15.17
2023-11-25T04:08:04.801Z,15.24
2023-11-25T04:10:31.955Z,15.19
2023-11-25T04:12:59.768Z,15.34
2023-11-25T04:15:27.578Z,15.21
2023-11-25T04:17:55.447Z,15.25
2023-11-25T04:20:26.368Z,15.30
2023-11-25T04:22:54.907Z,15.18
2023-11-25T04:25:22.824Z,15.21
2023-11-25T04:27:50.557Z,15.25
2023-11-25T04:30:18.447Z,15.34
2023-11-25T04:32:47.823Z,15.34
2023-11-25T04:35:15.476Z,15.19
2023-11-25T04:37:47.815Z,15.33
2023-11-25T04:40:15.599Z,15.31
2023-11-25T04:42:43.383Z,15.34
2023-11-25T04:45:17.085Z,15.29
2023-11-25T04:47:47.858Z,15.27
2023-11-25T04:50:15.940Z,15.15
2023-11-25T04:52:46.602Z,15.22
2023-11-25T04:55:14.320Z,15.29
2023-11-25T04:57:41.991Z,15.39
2023-11-25T05:00:14.657Z,15.41
2023-11-25T05:02:45.941Z,15.42
2023-11-25T05:05:14.394Z,15.41
2023-11-25T05:07:42.328Z,15.46
2023-11-25T05:10:11.586Z,15.40
2023-11-25T05:12:40.490Z,15.45
2023-11-25T05:15:10.505Z,15.36
2023-11-25T05:17:37.949Z,15.43
2023-11-25T05:20:06.527Z,15.30
2023-11-25T05:22:34.109Z,15.34
2023-11-25T05:25:01.205Z,15.41
2023-11-25T05:27:28.452Z,15.30
2023-11-25T05:29:55.665Z,15.35
2023-11-25T05:32:24.197Z,15.28
2023-11-25T05:34:51.748Z,15.35
2023-11-25T05:37:20.677Z,15.21
2023-11-25T05:39:49.107Z,15.25
2023-11-25T05:42:20.246Z,15.20
2023-11-25T05:44:47.387Z,15.08
2023-11-25T05:47:14.442Z,15.18
2023-11-25T05:49:42.554Z,15.22
2023-11-25T05:52:10.316Z,15.21
2023-11-25T05:54:37.398Z,15.16
2023-11-25T05:57:04.504Z,15.23
2023-11-25T05:59:31.567Z,15.14
2023-11-25T06:01:58.694Z,15.23
2023-11-25T06:04:25.923Z,15.30
2023-11-25T06:06:53.053Z,15.30
2023-11-25T06:09:20.140Z,15.37
2023-11-25T06:11:47.316Z,15.39
2023-11-25T06:14:16.571Z,15.28
2023-11-25T06:16:43.835Z,15.51
2023-11-25T06:19:12.001Z,15.53
2023-11-25T06:21:41.141Z,15.65
2023-11-25T06:24:09.388Z,15.90
2023-11-25T06:26:36.849Z,15.96
2023-11-25T06:29:04.241Z,16.35
2023-11-25T06:31:33.117Z,16.58
2023-11-25T06:34:02.350Z,17.03
2023-11-25T06:36:29.489Z,17.70
2023-11-25T06:38:56.620Z,18.39
2023-11-25T06:41:26.809Z,19.10
2023-11-25T06:43:54.578Z,19.93
2023-11-25T06:46:24.280Z,20.70
2023-11-25T06:48:53.612Z,21.39
2023-11-25T06:51:20.679Z,22.06
2023-11-25T06:53:47.849Z,22.58
2023-11-25T06:56:18.475Z,23.10
2023-11-25T06:58:47.257Z,23.58
2023-11-25T07:01:20.609Z,24.13
2023-11-25T07:03:48.058Z,24.58
2023-11-25T07:06:18.130Z,25.08
2023-11-25T07:08:48.498Z,25.49
2023-11-25T07:11:15.701Z,25.68
2023-11-25T07:13:43.630Z,25.43
2023-11-25T07:16:13.608Z,25.25
2023-11-25T07:18:47.224Z,25.41
2023-11-25T07:21:15.806Z,25.49
2023-11-25T07:23:44.226Z,25.47
2023-11-25T07:26:14.308Z,25.50
2023-11-25T07:28:41.597Z,25.33
2023-11-25T07:31:10.860Z,25.45
2023-11-25T07:33:38.172Z,25.39
2023-11-25T07:36:05.835Z,25.18
2023-11-25T07:38:32.942Z,24.82
2023-11-25T07:41:01.471Z,24.01
2023-11-25T07:43:30.333Z,23.70
2023-11-25T07:45:57.809Z,22.92
2023-11-25T07:48:24.910Z,22.30
2023-11-25T07:50:52.423Z,21.84
2023-11-25T07:53:24.398Z,21.47
2023-11-25T07:55:52.638Z,20.96
2023-11-25T07:58:20.540Z,20.77
2023-11-25T08:00:47.826Z,20.65
2023-11-25T08:03:15.099Z,20.48
2023-11-25T08:05:42.330Z,20.30
2023-11-25T08:08:09.409Z,20.25
2023-11-25T08:10:36.924Z,20.23
2023-11-25T08:13:04.098Z,20.13
2023-11-25T08:15:33.067Z,20.07
2023-11-25T08:18:00.555Z,20.17
2023-11-25T08:20:28.181Z,20.02
2023-11-25T08:22:55.428Z,20.30
2023-11-25T08:25:22.978Z,20.30
2023-11-25T08:27:51.608Z,20.41
2023-11-25T08:30:18.794Z,20.32
2023-11-25T08:32:47.290Z,20.34
2023-11-25T08:35:14.530Z,20.47
2023-11-25T08:37:41.914Z,20.68
2023-11-25T08:40:23.336Z,21.05
2023-11-25T08:42:51.095Z,21.33
2023-11-25T08:45:18.189Z,21.56
2023-11-25T08:47:45.978Z,21.82
2023-11-25T08:50:17.741Z,22.13
2023-11-25T08:52:47.929Z,22.25
2023-11-25T08:55:19.436Z,22.64
2023-11-25T08:57:47.486Z,22.77
2023-11-25T09:00:21.519Z,22.79
2023-11-25T09:02:52.841Z,22.51
2023-11-25T09:05:24.215Z,22.12
2023-11-25T09:07:58.541Z,21.89
2023-11-25T09:10:26.971Z,21.56
2023-11-25T09:12:54.749Z,21.40
2023-11-25T09:15:22.912Z,21.38
2023-11-25T09:17:50.212Z,21.33
2023-11-25T09:20:18.236Z,21.49
2023-11-25T09:22:46.536Z,21.57
2023-11-25T09:25:14.033Z,21.62
2023-11-25T09:27:45.725Z,21.48
2023-11-25T09:30:14.705Z,21.37
2023-11-25T09:32:42.908Z,21.51
2023-11-25T09:35:13.461Z,21.42
2023-11-25T09:37:41.318Z,21.39
2023-11-25T09:40:15.901Z,21.40
2023-11-25T09:42:44.831Z,21.43
2023-11-25T09:45:12.860Z,21.42
2023-11-25T09:47:41.325Z,21.27
2023-11-25T09:50:12.212Z,21.32
2023-11-25T09:52:54.757Z,21.37
2023-11-25T09:55:24.515Z,21.34
2023-11-25T09:58:00.251Z,20.88
2023-11-25T10:00:28.911Z,21.00
2023-11-25T10:02:58.887Z,20.75
2023-11-25T10:05:26.330Z,20.76
2023-11-25T10:07:53.497Z,20.70
2023-11-25T10:10:27.668Z,20.71
2023-11-25T10:12:54.936Z,20.64
2023-11-25T10:15:23.523Z,20.78
2023-11-25T10:17:53.753Z,20.79
2023-11-25T10:20:24.244Z,20.80
2023-11-25T10:22:55.390Z,20.76
2023-11-25T10:25:23.039Z,20.73
2023-11-25T10:27:52.891Z,20.68
2023-11-25T10:30:22.173Z,20.64
2023-11-25T10:32:51.473Z,20.55
2023-11-25T10:35:20.289Z,20.36
2023-11-25T10:37:47.741Z,20.41
2023-11-25T10:40:18.438Z,20.33
2023-11-25T10:42:46.942Z,20.19
2023-11-25T10:45:17.800Z,20.28
2023-11-25T10:47:45.562Z,20.06
2023-11-25T10:50:14.872Z,20.15
2023-11-25T10:52:45.008Z,20.02
2023-11-25T10:55:12.222Z,20.08
2023-11-25T10:57:39.582Z,19.84
2023-11-25T11:00:14.025Z,20.23
2023-11-25T11:02:56.055Z,20.26
2023-11-25T11:05:29.522Z,20.39
2023-11-25T11:08:03.447Z,20.39
2023-11-25T11:10:43.572Z,20.61
2023-11-25T11:13:12.774Z,20.65
2023-11-25T11:15:40.305Z,20.82
2023-11-25T11:18:14.759Z,20.90
2023-11-25T11:20:47.694Z,20.72
2023-11-25T11:23:17.317Z,20.90
2023-11-25T11:25:56.984Z,21.01
2023-11-25T11:28:29.643Z,20.94
2023-11-25T11:31:15.543Z,21.06
2023-11-25T11:33:42.725Z,21.00
2023-11-25T11:36:21.024Z,21.01
2023-11-25T11:38:48.312Z,21.12
2023-11-25T11:41:19.024Z,21.12
2023-11-25T11:44:11.353Z,21.12
2023-11-25T11:46:43.901Z,21.15
2023-11-25T11:49:13.548Z,21.02
2023-11-25T11:52:04.152Z,21.09
2023-11-25T11:54:31.552Z,21.01
2023-11-25T11:57:15.732Z,20.92
2023-11-25T12:00:02.873Z,20.97
2023-11-25T12:02:32.848Z,20.90
2023-11-25T12:05:01.164Z,20.92
2023-11-25T12:07:29.099Z,20.87
2023-11-25T12:09:57.212Z,20.80
2023-11-25T12:12:25.053Z,20.78
2023-11-25T12:14:54.364Z,20.55
2023-11-25T12:17:22.675Z,20.55
2023-11-25T12:19:53.718Z,20.51
2023-11-25T12:22:20.906Z,20.51
2023-11-25T12:24:47.996Z,20.50
2023-11-25T12:27:16.524Z,20.45
2023-11-25T12:29:43.661Z,20.51
2023-11-25T12:32:11.203Z,20.60
2023-11-25T12:34:38.528Z,20.60
2023-11-25T12:37:05.782Z,20.64
2023-11-25T12:39:32.849Z,20.75
2023-11-25T12:42:03.517Z,20.70
2023-11-25T12:44:51.588Z,20.74
2023-11-25T12:47:18.895Z,20.70
2023-11-25T12:49:46.704Z,20.55
2023-11-25T12:52:21.438Z,20.69
2023-11-25T12:54:50.890Z,20.55
2023-11-25T12:57:19.410Z,20.63
2023-11-25T12:59:47.567Z,20.61
2023-11-25T13:02:14.965Z,20.77
2023-11-25T13:04:50.665Z,20.79
2023-11-25T13:07:34.731Z,20.75
2023-11-25T13:10:04.174Z,20.87
2023-11-25T13:12:33.076Z,20.88
2023-11-25T13:15:00.435Z,20.85
2023-11-25T13:17:27.730Z,20.80
2023-11-25T13:19:57.170Z,20.64
2023-11-25T13:22:24.222Z,20.67
2023-11-25T13:24:51.736Z,20.73
2023-11-25T13:27:19.093Z,20.63
2023-11-25T13:29:46.246Z,20.59
2023-11-25T13:32:15.168Z,20.68
2023-11-25T13:34:42.454Z,20.54
2023-11-25T13:37:09.672Z,20.59
2023-11-25T13:39:37.226Z,20.46
2023-11-25T13:42:06.306Z,20.54
2023-11-25T13:44:33.499Z,20.30
2023-11-25T13:47:01.453Z,20.36
2023-11-25T13:49:31.186Z,20.47
2023-11-25T13:51:59.036Z,20.31
2023-11-25T13:54:30.369Z,20.43
2023-11-25T13:56:57.828Z,20.25
2023-11-25T13:59:25.281Z,20.27
2023-11-25T14:01:52.737Z,20.29
2023-11-25T14:04:20.805Z,20.37
2023-11-25T14:06:51.429Z,20.35
2023-11-25T14:09:19.356Z,20.17
2023-11-25T14:11:46.639Z,20.21
2023-11-25T14:14:14.060Z,20.26
2023-11-25T14:16:41.611Z,20.19
2023-11-25T14:19:08.795Z,20.30
2023-11-25T14:21:35.864Z,20.15
2023-11-25T14:24:02.960Z,20.12
2023-11-25T14:26:30.111Z,20.09
2023-11-25T14:28:57.234Z,20.06
2023-11-25T14:31:24.467Z,20.10
2023-11-25T14:33:51.626Z,20.10
2023-11-25T14:36:18.831Z,20.06
2023-11-25T14:38:47.936Z,19.91
2023-11-25T14:41:21.525Z,19.95
2023-11-25T14:43:48.822Z,19.96
2023-11-25T14:46:16.408Z,19.91
2023-11-25T14:48:43.705Z,20.04
2023-11-25T14:51:10.944Z,19.87
2023-11-25T14:53:40.866Z,19.98
2023-11-25T14:56:08.203Z,19.84
2023-11-25T14:58:35.912Z,19.83
2023-11-25T15:01:03.116Z,19.80
2023-11-25T15:03:30.273Z,19.81
2023-11-25T15:05:57.657Z,19.76
2023-11-25T15:08:24.784Z,19.78
2023-11-25T15:10:52.005Z,19.72
2023-11-25T15:13:19.251Z,19.76
2023-11-25T15:15:48.107Z,19.83
2023-11-25T15:18:15.815Z,19.73
2023-11-25T15:20:43.072Z,19.53
2023-11-25T15:23:10.280Z,19.63
2023-11-25T15:25:37.427Z,19.67
2023-11-25T15:28:07.425Z,19.51
2023-11-25T15:30:35.405Z,19.54
2023-11-25T15:33:02.608Z,19.39
2023-11-25T15:35:29.948Z,19.43
2023-11-25T15:37:57.377Z,19.26
2023-11-25T15:40:24.763Z,19.26
2023-11-25T15:42:51.964Z,19.27
2023-11-25T15:45:19.256Z,19.30
2023-11-25T15:47:47.035Z,19.20
2023-11-25T15:50:16.383Z,19.15
2023-11-25T15:52:43.677Z,19.12
2023-11-25T15:55:12.887Z,19.20
2023-11-25T15:57:40.479Z,19.19
2023-11-25T16:00:15.371Z,19.16
2023-11-25T16:02:43.897Z,19.15
2023-11-25T16:05:15.579Z,19.22
2023-11-25T16:07:43.199Z,19.28
2023-11-25T16:10:11.684Z,19.25
2023-11-25T16:12:39.581Z,19.28
2023-11-25T16:15:10.485Z,19.22
2023-11-25T16:17:38.800Z,19.31
2023-11-25T16:20:07.216Z,19.26
2023-11-25T16:22:34.366Z,19.18
2023-11-25T16:25:01.587Z,19.20
2023-11-25T16:27:28.872Z,19.21
2023-11-25T16:29:56.464Z,19.18
2023-11-25T16:32:23.890Z,19.17
2023-11-25T16:34:51.445Z,19.33
2023-11-25T16:37:18.736Z,19.18
2023-11-25T16:39:46.974Z,19.29
2023-11-25T16:42:14.089Z,19.24
2023-11-25T16:44:41.239Z,19.23
2023-11-25T16:47:08.334Z,19.29
2023-11-25T16:49:41.643Z,19.23
2023-11-25T16:52:10.636Z,19.21
2023-11-25T16:54:37.945Z,19.32
2023-11-25T16:57:05.022Z,19.23
2023-11-25T16:59:33.578Z,19.33
2023-11-25T17:02:00.714Z,19.24
2023-11-25T17:04:27.979Z,19.17
2023-11-25T17:06:56.317Z,19.19
2023-11-25T17:09:24.629Z,19.19
2023-11-25T17:11:51.939Z,19.22
2023-11-25T17:14:19.341Z,19.07
2023-11-25T17:16:47.096Z,19.13
2023-11-25T17:19:15.601Z,19.18
2023-11-25T17:21:42.855Z,19.06
2023-11-25T17:24:10.581Z,19.13
2023-11-25T17:26:37.785Z,19.05
2023-11-25T17:29:04.971Z,19.13
2023-11-25T17:31:32.490Z,19.04
2023-11-25T17:33:59.648Z,19.08
2023-11-25T17:36:26.822Z,19.13
2023-11-25T17:38:53.906Z,19.13
2023-11-25T17:41:21.435Z,19.13
2023-11-25T17:43:48.692Z,19.18
2023-11-25T17:46:16.044Z,18.85
2023-11-25T17:48:43.223Z,19.14
2023-11-25T17:51:10.310Z,19.04
2023-11-25T17:53:37.474Z,19.11
2023-11-25T17:56:05.113Z,19.30
2023-11-25T17:58:32.202Z,19.29
2023-11-25T18:00:59.326Z,19.39
2023-11-25T18:03:26.508Z,19.40
2023-11-25T18:05:53.640Z,19.54
2023-11-25T18:08:20.697Z,19.45
2023-11-25T18:10:47.880Z,19.38
2023-11-25T18:13:15.002Z,19.40
2023-11-25T18:15:44.118Z,19.32
2023-11-25T18:18:11.839Z,19.27
2023-11-25T18:20:39.025Z,19.36
2023-11-25T18:23:06.117Z,19.27
2023-11-25T18:25:33.456Z,19.28
2023-11-25T18:28:00.938Z,19.25
2023-11-25T18:30:28.527Z,19.30
2023-11-25T18:32:55.753Z,19.28
2023-11-25T18:35:22.944Z,19.20
2023-11-25T18:37:50.015Z,19.29
2023-11-25T18:40:18.116Z,19.24
2023-11-25T18:42:45.772Z,19.33
2023-11-25T18:45:12.896Z,19.38
2023-11-25T18:47:40.025Z,19.33
2023-11-25T18:50:08.002Z,19.40
2023-11-25T18:52:35.466Z,19.45
2023-11-25T18:55:02.510Z,19.50
2023-11-25T18:57:29.598Z,19.28
2023-11-25T18:59:56.686Z,19.46
2023-11-25T19:02:24.091Z,19.50
2023-11-25T19:04:51.129Z,19.34
2023-11-25T19:07:18.250Z,19.51
2023-11-25T19:09:45.304Z,19.44
2023-11-25T19:12:15.315Z,19.40
2023-11-25T19:14:45.419Z,19.40
2023-11-25T19:17:13.649Z,19.53
2023-11-25T19:19:40.859Z,19.43
2023-11-25T19:22:11.568Z,19.35
2023-11-25T19:24:39.066Z,19.39
2023-11-25T19:27:06.214Z,19.48
2023-11-25T19:29:33.416Z,19.55
2023-11-25T19:32:00.581Z,19.43
2023-11-25T19:34:27.712Z,19.40
2023-11-25T19:36:54.723Z,19.41
2023-11-25T19:39:22.476Z,19.41
2023-11-25T19:41:49.541Z,19.38
2023-11-25T19:44:16.951Z,19.27
2023-11-25T19:46:44.051Z,19.34
2023-11-25T19:49:14.356Z,19.33
2023-11-25T19:51:42.020Z,19.24
2023-11-25T19:54:09.097Z,18.71
2023-11-25T19:56:39.119Z,18.31
2023-11-25T19:59:07.649Z,17.89
2023-11-25T20:01:36.715Z,17.62
2023-11-25T20:04:04.133Z,17.56
2023-11-25T20:06:31.173Z,17.32
2023-11-25T20:08:58.694Z,17.17
2023-11-25T20:11:25.711Z,17.15
2023-11-25T20:13:52.776Z,17.01
2023-11-25T20:16:19.850Z,16.96
2023-11-25T20:18:46.915Z,16.78
2023-11-25T20:21:14.078Z,16.71
2023-11-25T20:23:42.407Z,16.85
2023-11-25T20:26:09.613Z,16.84
2023-11-25T20:28:37.110Z,16.66
2023-11-25T20:31:04.477Z,16.65
2023-11-25T20:33:31.593Z,16.72
2023-11-25T20:35:58.784Z,16.63
2023-11-25T20:38:25.903Z,16.57
2023-11-25T20:40:53.071Z,16.54
2023-11-25T20:43:20.315Z,16.47
2023-11-25T20:45:47.532Z,16.54
2023-11-25T20:48:14.624Z,16.44
2023-11-25T20:50:42.045Z,16.50
2023-11-25T20:53:09.283Z,16.35
2023-11-25T20:55:36.507Z,16.22
2023-11-25T20:58:03.613Z,16.25
2023-11-25T21:00:32.656Z,16.13
2023-11-25T21:03:00.081Z,16.09
2023-11-25T21:05:27.524Z,16.13
2023-11-25T21:07:54.583Z,16.07
2023-11-25T21:10:21.740Z,16.17
2023-11-25T21:12:49.135Z,15.99
2023-11-25T21:15:16.392Z,15.93
2023-11-25T21:17:43.681Z,15.96
2023-11-25T21:20:11.305Z,15.95
2023-11-25T21:22:38.537Z,15.96
2023-11-25T21:25:07.189Z,15.97
2023-11-25T21:27:38.820Z,15.87
2023-11-25T21:30:06.689Z,15.83
2023-11-25T21:32:33.749Z,15.89
2023-11-25T21:35:01.012Z,15.76
2023-11-25T21:37:28.238Z,15.76
2023-11-25T21:39:58.171Z,15.62
2023-11-25T21:42:28.894Z,15.63
2023-11-25T21:44:56.068Z,15.82
2023-11-25T21:47:23.315Z,15.68
2023-11-25T21:49:50.455Z,15.67
2023-11-25T21:52:17.795Z,15.67
2023-11-25T21:54:44.881Z,15.72
2023-11-25T21:57:12.192Z,15.59
2023-11-25T21:59:39.457Z,15.65
2023-11-25T22:02:06.759Z,15.66
2023-11-25T22:04:33.983Z,15.53
2023-11-25T22:07:04.339Z,15.47
2023-11-25T22:09:32.063Z,15.36
2023-11-25T22:11:59.496Z,15.38
2023-11-25T22:14:26.788Z,15.30
2023-11-25T22:16:53.900Z,15.19
2023-11-25T22:19:21.234Z,15.35
2023-11-25T22:21:48.284Z,15.14
2023-11-25T22:24:19.119Z,15.08
2023-11-25T22:26:57.395Z,15.05
2023-11-25T22:29:24.594Z,15.02
2023-11-25T22:31:52.410Z,15.14
2023-11-25T22:34:20.276Z,15.01
2023-11-25T22:36:47.750Z,14.96
2023-11-25T22:39:14.998Z,14.96
2023-11-25T22:41:42.115Z,14.87
2023-11-25T22:44:09.696Z,14.92
2023-11-25T22:46:40.201Z,14.82
2023-11-25T22:49:09.010Z,14.86
2023-11-25T22:51:36.532Z,14.84
2023-11-25T22:54:04.788Z,14.91
2023-11-25T22:56:31.814Z,14.75
2023-11-25T22:58:58.937Z,14.76
2023-11-25T23:01:29.301Z,14.74
2023-11-25T23:03:56.704Z,14.73
2023-11-25T23:06:24.867Z,14.72
2023-11-25T23:08:53.796Z,14.81
2023-11-25T23:11:21.286Z,14.68
2023-11-25T23:13:48.461Z,14.68
2023-11-25T23:16:16.900Z,14.76
2023-11-25T23:18:44.101Z,14.60
2023-11-25T23:21:11.166Z,14.58
2023-11-25T23:23:43.591Z,14.70
2023-11-25T23:26:16.228Z,14.68
2023-11-25T23:28:43.752Z,14.55
2023-11-25T23:31:10.883Z,14.60
2023-11-25T23:33:38.021Z,14.41
2023-11-25T23:36:05.495Z,14.42
2023-11-25T23:38:33.161Z,14.36
2023-11-25T23:41:01.915Z,14.51
2023-11-25T23:43:30.019Z,14.42
2023-11-25T23:45:57.772Z,14.35
2023-11-25T23:48:25.135Z,14.30
2023-11-25T23:50:52.683Z,14.35
2023-11-25T23:53:19.870Z,14.25
2023-11-25T23:55:46.988Z,14.24
2023-11-25T23:58:14.631Z,14.24
